<?xml version="1.0" encoding="UTF-8" standalone="no" ?>
<gpx xmlns="http://www.topografix.com/GPX/1/1" xmlns:xsi="http://www.w3.org/2001/XMLSchema-instance" xsi:schemaLocation="http://www.topografix.com/GPX/1/1 http://www.topografix.com/GPX/1/1/gpx.xsd" version="1.1" creator="VisuGPX - https://www.visugpx.com">
  <metadata>
    <name>chazelles les pinnasses</name>
    <desc><![CDATA[circuit chazelles les pinnasses repris de openrunner]]></desc>
  </metadata>
  <trk>
    <name><![CDATA[OR-3974298--Chazelles-sur-Lyon:chazelles les pinnasses]]></name>
    <trkseg>
      <trkpt lat="45.64486" lon="4.38988">
        <ele>610</ele>
        <time>2017-03-16T14:55:13Z</time>
      </trkpt>
      <trkpt lat="45.64438" lon="4.39012">
        <ele>612</ele>
        <time>2017-03-16T14:57:13Z</time>
      </trkpt>
      <trkpt lat="45.64385" lon="4.39075">
        <ele>613</ele>
        <time>2017-03-16T14:59:13Z</time>
      </trkpt>
      <trkpt lat="45.64321" lon="4.39124">
        <ele>613</ele>
        <time>2017-03-16T15:01:13Z</time>
      </trkpt>
      <trkpt lat="45.64276" lon="4.39186">
        <ele>614</ele>
        <time>2017-03-16T15:03:13Z</time>
      </trkpt>
      <trkpt lat="45.64206" lon="4.39248">
        <ele>616</ele>
        <time>2017-03-16T15:05:13Z</time>
      </trkpt>
      <trkpt lat="45.64165" lon="4.39298">
        <ele>617</ele>
        <time>2017-03-16T15:07:13Z</time>
      </trkpt>
      <trkpt lat="45.64124" lon="4.39356">
        <ele>619</ele>
        <time>2017-03-16T15:09:13Z</time>
      </trkpt>
      <trkpt lat="45.64066" lon="4.39394">
        <ele>620</ele>
        <time>2017-03-16T15:11:13Z</time>
      </trkpt>
      <trkpt lat="45.64026" lon="4.39423">
        <ele>622</ele>
        <time>2017-03-16T15:13:13Z</time>
      </trkpt>
      <trkpt lat="45.63996" lon="4.39449">
        <ele>622</ele>
        <time>2017-03-16T15:15:13Z</time>
      </trkpt>
      <trkpt lat="45.63989" lon="4.39471">
        <ele>623</ele>
        <time>2017-03-16T15:17:13Z</time>
      </trkpt>
      <trkpt lat="45.6383" lon="4.39551">
        <ele>621</ele>
        <time>2017-03-16T15:19:13Z</time>
      </trkpt>
      <trkpt lat="45.63842" lon="4.39631">
        <ele>615</ele>
        <time>2017-03-16T15:21:13Z</time>
      </trkpt>
      <trkpt lat="45.63856" lon="4.39669">
        <ele>613</ele>
        <time>2017-03-16T15:23:13Z</time>
      </trkpt>
      <trkpt lat="45.63868" lon="4.39735">
        <ele>611</ele>
        <time>2017-03-16T15:25:13Z</time>
      </trkpt>
      <trkpt lat="45.63888" lon="4.39817">
        <ele>606</ele>
        <time>2017-03-16T15:27:13Z</time>
      </trkpt>
      <trkpt lat="45.63923" lon="4.39872">
        <ele>603</ele>
        <time>2017-03-16T15:29:13Z</time>
      </trkpt>
      <trkpt lat="45.63909" lon="4.39949">
        <ele>596</ele>
        <time>2017-03-16T15:31:13Z</time>
      </trkpt>
      <trkpt lat="45.63879" lon="4.4001">
        <ele>592</ele>
        <time>2017-03-16T15:33:13Z</time>
      </trkpt>
      <trkpt lat="45.63874" lon="4.40093">
        <ele>586</ele>
        <time>2017-03-16T15:35:13Z</time>
      </trkpt>
      <trkpt lat="45.63874" lon="4.40189">
        <ele>579</ele>
        <time>2017-03-16T15:37:13Z</time>
      </trkpt>
      <trkpt lat="45.63804" lon="4.40341">
        <ele>574</ele>
        <time>2017-03-16T15:39:13Z</time>
      </trkpt>
      <trkpt lat="45.63777" lon="4.40476">
        <ele>570</ele>
        <time>2017-03-16T15:41:13Z</time>
      </trkpt>
      <trkpt lat="45.63765" lon="4.40532">
        <ele>568</ele>
        <time>2017-03-16T15:43:13Z</time>
      </trkpt>
      <trkpt lat="45.63751" lon="4.40564">
        <ele>566</ele>
        <time>2017-03-16T15:45:13Z</time>
      </trkpt>
      <trkpt lat="45.63721" lon="4.40693">
        <ele>566</ele>
        <time>2017-03-16T15:47:13Z</time>
      </trkpt>
      <trkpt lat="45.63675" lon="4.40828">
        <ele>558</ele>
        <time>2017-03-16T15:49:13Z</time>
      </trkpt>
      <trkpt lat="45.63673" lon="4.4087">
        <ele>556</ele>
        <time>2017-03-16T15:51:13Z</time>
      </trkpt>
      <trkpt lat="45.63704" lon="4.40912">
        <ele>554</ele>
        <time>2017-03-16T15:53:13Z</time>
      </trkpt>
      <trkpt lat="45.63714" lon="4.4095">
        <ele>555</ele>
        <time>2017-03-16T15:55:13Z</time>
      </trkpt>
      <trkpt lat="45.63707" lon="4.4098">
        <ele>555</ele>
        <time>2017-03-16T15:57:13Z</time>
      </trkpt>
      <trkpt lat="45.6357" lon="4.4117">
        <ele>562</ele>
        <time>2017-03-16T15:59:13Z</time>
      </trkpt>
      <trkpt lat="45.63543" lon="4.4125">
        <ele>570</ele>
        <time>2017-03-16T16:01:13Z</time>
      </trkpt>
      <trkpt lat="45.63514" lon="4.41333">
        <ele>574</ele>
        <time>2017-03-16T16:03:13Z</time>
      </trkpt>
      <trkpt lat="45.63486" lon="4.41395">
        <ele>576</ele>
        <time>2017-03-16T16:05:13Z</time>
      </trkpt>
      <trkpt lat="45.63467" lon="4.41473">
        <ele>579</ele>
        <time>2017-03-16T16:07:13Z</time>
      </trkpt>
      <trkpt lat="45.63372" lon="4.41469">
        <ele>575</ele>
        <time>2017-03-16T16:09:13Z</time>
      </trkpt>
      <trkpt lat="45.63233" lon="4.41433">
        <ele>569</ele>
        <time>2017-03-16T16:11:13Z</time>
      </trkpt>
      <trkpt lat="45.63045" lon="4.41369">
        <ele>559</ele>
        <time>2017-03-16T16:13:13Z</time>
      </trkpt>
      <trkpt lat="45.63043" lon="4.41428">
        <ele>558</ele>
        <time>2017-03-16T16:15:13Z</time>
      </trkpt>
      <trkpt lat="45.63095" lon="4.41766">
        <ele>544</ele>
        <time>2017-03-16T16:17:13Z</time>
      </trkpt>
      <trkpt lat="45.63117" lon="4.42054">
        <ele>537</ele>
        <time>2017-03-16T16:19:13Z</time>
      </trkpt>
      <trkpt lat="45.63133" lon="4.42321">
        <ele>525</ele>
        <time>2017-03-16T16:21:13Z</time>
      </trkpt>
      <trkpt lat="45.6312" lon="4.42314">
        <ele>525</ele>
        <time>2017-03-16T16:23:13Z</time>
      </trkpt>
      <trkpt lat="45.63093" lon="4.42246">
        <ele>519</ele>
        <time>2017-03-16T16:25:13Z</time>
      </trkpt>
      <trkpt lat="45.62998" lon="4.42238">
        <ele>514</ele>
        <time>2017-03-16T16:27:13Z</time>
      </trkpt>
      <trkpt lat="45.62985" lon="4.42233">
        <ele>514</ele>
        <time>2017-03-16T16:29:13Z</time>
      </trkpt>
      <trkpt lat="45.62957" lon="4.42253">
        <ele>516</ele>
        <time>2017-03-16T16:31:13Z</time>
      </trkpt>
      <trkpt lat="45.62854" lon="4.42313">
        <ele>526</ele>
        <time>2017-03-16T16:33:13Z</time>
      </trkpt>
      <trkpt lat="45.62824" lon="4.42353">
        <ele>528</ele>
        <time>2017-03-16T16:35:13Z</time>
      </trkpt>
      <trkpt lat="45.62777" lon="4.42516">
        <ele>525</ele>
        <time>2017-03-16T16:37:13Z</time>
      </trkpt>
      <trkpt lat="45.62762" lon="4.42573">
        <ele>525</ele>
        <time>2017-03-16T16:39:13Z</time>
      </trkpt>
      <trkpt lat="45.62766" lon="4.42662">
        <ele>525</ele>
        <time>2017-03-16T16:41:13Z</time>
      </trkpt>
      <trkpt lat="45.62783" lon="4.4279">
        <ele>518</ele>
        <time>2017-03-16T16:43:13Z</time>
      </trkpt>
      <trkpt lat="45.62771" lon="4.42859">
        <ele>515</ele>
        <time>2017-03-16T16:45:13Z</time>
      </trkpt>
      <trkpt lat="45.62746" lon="4.42894">
        <ele>513</ele>
        <time>2017-03-16T16:47:13Z</time>
      </trkpt>
      <trkpt lat="45.62717" lon="4.42955">
        <ele>510</ele>
        <time>2017-03-16T16:49:13Z</time>
      </trkpt>
      <trkpt lat="45.62681" lon="4.43017">
        <ele>511</ele>
        <time>2017-03-16T16:51:13Z</time>
      </trkpt>
      <trkpt lat="45.62658" lon="4.43097">
        <ele>511</ele>
        <time>2017-03-16T16:53:13Z</time>
      </trkpt>
      <trkpt lat="45.62601" lon="4.43153">
        <ele>505</ele>
        <time>2017-03-16T16:55:13Z</time>
      </trkpt>
      <trkpt lat="45.62582" lon="4.43222">
        <ele>504</ele>
        <time>2017-03-16T16:57:13Z</time>
      </trkpt>
      <trkpt lat="45.62546" lon="4.43367">
        <ele>502</ele>
        <time>2017-03-16T16:59:13Z</time>
      </trkpt>
      <trkpt lat="45.62466" lon="4.43573">
        <ele>495</ele>
        <time>2017-03-16T17:01:13Z</time>
      </trkpt>
      <trkpt lat="45.62452" lon="4.43641">
        <ele>495</ele>
        <time>2017-03-16T17:03:13Z</time>
      </trkpt>
      <trkpt lat="45.62413" lon="4.4378">
        <ele>494</ele>
        <time>2017-03-16T17:05:13Z</time>
      </trkpt>
      <trkpt lat="45.6239" lon="4.43902">
        <ele>494</ele>
        <time>2017-03-16T17:07:13Z</time>
      </trkpt>
      <trkpt lat="45.62383" lon="4.44014">
        <ele>493</ele>
        <time>2017-03-16T17:09:13Z</time>
      </trkpt>
      <trkpt lat="45.62393" lon="4.44105">
        <ele>495</ele>
        <time>2017-03-16T17:11:13Z</time>
      </trkpt>
      <trkpt lat="45.62399" lon="4.44177">
        <ele>497</ele>
        <time>2017-03-16T17:13:13Z</time>
      </trkpt>
      <trkpt lat="45.6236" lon="4.44292">
        <ele>497</ele>
        <time>2017-03-16T17:15:13Z</time>
      </trkpt>
      <trkpt lat="45.62328" lon="4.44438">
        <ele>497</ele>
        <time>2017-03-16T17:17:13Z</time>
      </trkpt>
      <trkpt lat="45.62307" lon="4.44473">
        <ele>495</ele>
        <time>2017-03-16T17:19:13Z</time>
      </trkpt>
      <trkpt lat="45.62257" lon="4.44418">
        <ele>493</ele>
        <time>2017-03-16T17:21:13Z</time>
      </trkpt>
      <trkpt lat="45.62236" lon="4.44367">
        <ele>493</ele>
        <time>2017-03-16T17:23:13Z</time>
      </trkpt>
      <trkpt lat="45.62222" lon="4.44328">
        <ele>492</ele>
        <time>2017-03-16T17:25:13Z</time>
      </trkpt>
      <trkpt lat="45.62144" lon="4.44226">
        <ele>491</ele>
        <time>2017-03-16T17:27:13Z</time>
      </trkpt>
      <trkpt lat="45.6214" lon="4.44213">
        <ele>492</ele>
        <time>2017-03-16T17:29:13Z</time>
      </trkpt>
      <trkpt lat="45.62145" lon="4.44181">
        <ele>492</ele>
        <time>2017-03-16T17:31:13Z</time>
      </trkpt>
      <trkpt lat="45.62146" lon="4.44136">
        <ele>495</ele>
        <time>2017-03-16T17:33:13Z</time>
      </trkpt>
      <trkpt lat="45.6215" lon="4.44071">
        <ele>498</ele>
        <time>2017-03-16T17:35:13Z</time>
      </trkpt>
      <trkpt lat="45.62139" lon="4.43944">
        <ele>502</ele>
        <time>2017-03-16T17:37:13Z</time>
      </trkpt>
      <trkpt lat="45.62138" lon="4.43891">
        <ele>503</ele>
        <time>2017-03-16T17:39:13Z</time>
      </trkpt>
      <trkpt lat="45.62128" lon="4.43828">
        <ele>507</ele>
        <time>2017-03-16T17:41:13Z</time>
      </trkpt>
      <trkpt lat="45.62083" lon="4.43697">
        <ele>514</ele>
        <time>2017-03-16T17:43:13Z</time>
      </trkpt>
      <trkpt lat="45.6204" lon="4.43585">
        <ele>527</ele>
        <time>2017-03-16T17:45:13Z</time>
      </trkpt>
      <trkpt lat="45.62015" lon="4.43508">
        <ele>533</ele>
        <time>2017-03-16T17:47:13Z</time>
      </trkpt>
      <trkpt lat="45.6201" lon="4.43469">
        <ele>534</ele>
        <time>2017-03-16T17:49:13Z</time>
      </trkpt>
      <trkpt lat="45.61953" lon="4.43329">
        <ele>541</ele>
        <time>2017-03-16T17:51:13Z</time>
      </trkpt>
      <trkpt lat="45.61953" lon="4.43236">
        <ele>536</ele>
        <time>2017-03-16T17:53:13Z</time>
      </trkpt>
      <trkpt lat="45.61915" lon="4.43193">
        <ele>537</ele>
        <time>2017-03-16T17:55:13Z</time>
      </trkpt>
      <trkpt lat="45.61859" lon="4.43156">
        <ele>536</ele>
        <time>2017-03-16T17:57:13Z</time>
      </trkpt>
      <trkpt lat="45.6181" lon="4.43138">
        <ele>533</ele>
        <time>2017-03-16T17:59:13Z</time>
      </trkpt>
      <trkpt lat="45.61733" lon="4.43153">
        <ele>532</ele>
        <time>2017-03-16T18:01:13Z</time>
      </trkpt>
      <trkpt lat="45.61698" lon="4.43141">
        <ele>531</ele>
        <time>2017-03-16T18:03:13Z</time>
      </trkpt>
      <trkpt lat="45.61668" lon="4.43093">
        <ele>526</ele>
        <time>2017-03-16T18:05:13Z</time>
      </trkpt>
      <trkpt lat="45.61631" lon="4.43028">
        <ele>532</ele>
        <time>2017-03-16T18:07:13Z</time>
      </trkpt>
      <trkpt lat="45.61576" lon="4.42959">
        <ele>532</ele>
        <time>2017-03-16T18:09:13Z</time>
      </trkpt>
      <trkpt lat="45.61561" lon="4.42961">
        <ele>532</ele>
        <time>2017-03-16T18:11:13Z</time>
      </trkpt>
      <trkpt lat="45.61528" lon="4.42998">
        <ele>536</ele>
        <time>2017-03-16T18:13:13Z</time>
      </trkpt>
      <trkpt lat="45.61456" lon="4.43045">
        <ele>542</ele>
        <time>2017-03-16T18:15:13Z</time>
      </trkpt>
      <trkpt lat="45.61437" lon="4.43031">
        <ele>539</ele>
        <time>2017-03-16T18:17:13Z</time>
      </trkpt>
      <trkpt lat="45.61432" lon="4.43007">
        <ele>536</ele>
        <time>2017-03-16T18:19:13Z</time>
      </trkpt>
      <trkpt lat="45.61398" lon="4.43003">
        <ele>535</ele>
        <time>2017-03-16T18:21:13Z</time>
      </trkpt>
      <trkpt lat="45.61337" lon="4.43014">
        <ele>536</ele>
        <time>2017-03-16T18:23:13Z</time>
      </trkpt>
      <trkpt lat="45.61277" lon="4.4303">
        <ele>537</ele>
        <time>2017-03-16T18:25:13Z</time>
      </trkpt>
      <trkpt lat="45.61247" lon="4.4303">
        <ele>536</ele>
        <time>2017-03-16T18:27:13Z</time>
      </trkpt>
      <trkpt lat="45.61175" lon="4.4299">
        <ele>524</ele>
        <time>2017-03-16T18:29:13Z</time>
      </trkpt>
      <trkpt lat="45.61151" lon="4.42918">
        <ele>523</ele>
        <time>2017-03-16T18:31:13Z</time>
      </trkpt>
      <trkpt lat="45.61112" lon="4.42912">
        <ele>526</ele>
        <time>2017-03-16T18:33:13Z</time>
      </trkpt>
      <trkpt lat="45.6105" lon="4.42881">
        <ele>528</ele>
        <time>2017-03-16T18:35:13Z</time>
      </trkpt>
      <trkpt lat="45.61039" lon="4.42891">
        <ele>530</ele>
        <time>2017-03-16T18:37:13Z</time>
      </trkpt>
      <trkpt lat="45.61022" lon="4.42945">
        <ele>536</ele>
        <time>2017-03-16T18:39:13Z</time>
      </trkpt>
      <trkpt lat="45.6097" lon="4.43023">
        <ele>549</ele>
        <time>2017-03-16T18:41:13Z</time>
      </trkpt>
      <trkpt lat="45.60909" lon="4.43106">
        <ele>568</ele>
        <time>2017-03-16T18:43:13Z</time>
      </trkpt>
      <trkpt lat="45.60852" lon="4.43197">
        <ele>585</ele>
        <time>2017-03-16T18:45:13Z</time>
      </trkpt>
      <trkpt lat="45.60821" lon="4.43271">
        <ele>591</ele>
        <time>2017-03-16T18:47:13Z</time>
      </trkpt>
      <trkpt lat="45.60772" lon="4.43376">
        <ele>594</ele>
        <time>2017-03-16T18:49:13Z</time>
      </trkpt>
      <trkpt lat="45.60751" lon="4.43507">
        <ele>607</ele>
        <time>2017-03-16T18:51:13Z</time>
      </trkpt>
      <trkpt lat="45.60718" lon="4.43625">
        <ele>612</ele>
        <time>2017-03-16T18:53:13Z</time>
      </trkpt>
      <trkpt lat="45.60715" lon="4.43727">
        <ele>615</ele>
        <time>2017-03-16T18:55:13Z</time>
      </trkpt>
      <trkpt lat="45.60712" lon="4.43801">
        <ele>617</ele>
        <time>2017-03-16T18:57:13Z</time>
      </trkpt>
      <trkpt lat="45.607" lon="4.43854">
        <ele>619</ele>
        <time>2017-03-16T18:59:13Z</time>
      </trkpt>
      <trkpt lat="45.6067" lon="4.43888">
        <ele>622</ele>
        <time>2017-03-16T19:01:13Z</time>
      </trkpt>
      <trkpt lat="45.60648" lon="4.43916">
        <ele>622</ele>
        <time>2017-03-16T19:03:13Z</time>
      </trkpt>
      <trkpt lat="45.60622" lon="4.43955">
        <ele>624</ele>
        <time>2017-03-16T19:05:13Z</time>
      </trkpt>
      <trkpt lat="45.60586" lon="4.44028">
        <ele>627</ele>
        <time>2017-03-16T19:07:13Z</time>
      </trkpt>
      <trkpt lat="45.60567" lon="4.44052">
        <ele>628</ele>
        <time>2017-03-16T19:09:13Z</time>
      </trkpt>
      <trkpt lat="45.60582" lon="4.44132">
        <ele>632</ele>
        <time>2017-03-16T19:11:13Z</time>
      </trkpt>
      <trkpt lat="45.60603" lon="4.4422">
        <ele>634</ele>
        <time>2017-03-16T19:13:13Z</time>
      </trkpt>
      <trkpt lat="45.6063" lon="4.44306">
        <ele>630</ele>
        <time>2017-03-16T19:15:13Z</time>
      </trkpt>
      <trkpt lat="45.60627" lon="4.44318">
        <ele>630</ele>
        <time>2017-03-16T19:17:13Z</time>
      </trkpt>
      <trkpt lat="45.60594" lon="4.44336">
        <ele>630</ele>
        <time>2017-03-16T19:19:13Z</time>
      </trkpt>
      <trkpt lat="45.60555" lon="4.44376">
        <ele>631</ele>
        <time>2017-03-16T19:21:13Z</time>
      </trkpt>
      <trkpt lat="45.60578" lon="4.44418">
        <ele>626</ele>
        <time>2017-03-16T19:23:13Z</time>
      </trkpt>
      <trkpt lat="45.60636" lon="4.44479">
        <ele>619</ele>
        <time>2017-03-16T19:25:13Z</time>
      </trkpt>
      <trkpt lat="45.60621" lon="4.44533">
        <ele>617</ele>
        <time>2017-03-16T19:27:13Z</time>
      </trkpt>
      <trkpt lat="45.60578" lon="4.4464">
        <ele>615</ele>
        <time>2017-03-16T19:29:13Z</time>
      </trkpt>
      <trkpt lat="45.60552" lon="4.44693">
        <ele>614</ele>
        <time>2017-03-16T19:31:13Z</time>
      </trkpt>
      <trkpt lat="45.60504" lon="4.44676">
        <ele>621</ele>
        <time>2017-03-16T19:33:13Z</time>
      </trkpt>
      <trkpt lat="45.60476" lon="4.4471">
        <ele>620</ele>
        <time>2017-03-16T19:35:13Z</time>
      </trkpt>
      <trkpt lat="45.60444" lon="4.44736">
        <ele>620</ele>
        <time>2017-03-16T19:37:13Z</time>
      </trkpt>
      <trkpt lat="45.60408" lon="4.44728">
        <ele>623</ele>
        <time>2017-03-16T19:39:13Z</time>
      </trkpt>
      <trkpt lat="45.60375" lon="4.44708">
        <ele>628</ele>
        <time>2017-03-16T19:41:13Z</time>
      </trkpt>
      <trkpt lat="45.60348" lon="4.44709">
        <ele>631</ele>
        <time>2017-03-16T19:43:13Z</time>
      </trkpt>
      <trkpt lat="45.60346" lon="4.44742">
        <ele>632</ele>
        <time>2017-03-16T19:45:13Z</time>
      </trkpt>
      <trkpt lat="45.60303" lon="4.44766">
        <ele>638</ele>
        <time>2017-03-16T19:47:13Z</time>
      </trkpt>
      <trkpt lat="45.60236" lon="4.44783">
        <ele>645</ele>
        <time>2017-03-16T19:49:13Z</time>
      </trkpt>
      <trkpt lat="45.60246" lon="4.44876">
        <ele>647</ele>
        <time>2017-03-16T19:51:13Z</time>
      </trkpt>
      <trkpt lat="45.60258" lon="4.45012">
        <ele>649</ele>
        <time>2017-03-16T19:53:13Z</time>
      </trkpt>
      <trkpt lat="45.60269" lon="4.45138">
        <ele>644</ele>
        <time>2017-03-16T19:55:13Z</time>
      </trkpt>
      <trkpt lat="45.60272" lon="4.45296">
        <ele>626</ele>
        <time>2017-03-16T19:57:13Z</time>
      </trkpt>
      <trkpt lat="45.60293" lon="4.45371">
        <ele>615</ele>
        <time>2017-03-16T19:59:13Z</time>
      </trkpt>
      <trkpt lat="45.60318" lon="4.45431">
        <ele>605</ele>
        <time>2017-03-16T20:01:13Z</time>
      </trkpt>
      <trkpt lat="45.60323" lon="4.45535">
        <ele>596</ele>
        <time>2017-03-16T20:03:13Z</time>
      </trkpt>
      <trkpt lat="45.60332" lon="4.45611">
        <ele>591</ele>
        <time>2017-03-16T20:05:13Z</time>
      </trkpt>
      <trkpt lat="45.6033" lon="4.45683">
        <ele>583</ele>
        <time>2017-03-16T20:07:13Z</time>
      </trkpt>
      <trkpt lat="45.60298" lon="4.45728">
        <ele>576</ele>
        <time>2017-03-16T20:09:13Z</time>
      </trkpt>
      <trkpt lat="45.60263" lon="4.45781">
        <ele>570</ele>
        <time>2017-03-16T20:11:13Z</time>
      </trkpt>
      <trkpt lat="45.60239" lon="4.45831">
        <ele>568</ele>
        <time>2017-03-16T20:13:13Z</time>
      </trkpt>
      <trkpt lat="45.60233" lon="4.45871">
        <ele>565</ele>
        <time>2017-03-16T20:15:13Z</time>
      </trkpt>
      <trkpt lat="45.60214" lon="4.45913">
        <ele>567</ele>
        <time>2017-03-16T20:17:13Z</time>
      </trkpt>
      <trkpt lat="45.6018" lon="4.45952">
        <ele>571</ele>
        <time>2017-03-16T20:19:13Z</time>
      </trkpt>
      <trkpt lat="45.60149" lon="4.45994">
        <ele>567</ele>
        <time>2017-03-16T20:21:13Z</time>
      </trkpt>
      <trkpt lat="45.60136" lon="4.4606">
        <ele>563</ele>
        <time>2017-03-16T20:23:13Z</time>
      </trkpt>
      <trkpt lat="45.60123" lon="4.46081">
        <ele>563</ele>
        <time>2017-03-16T20:25:13Z</time>
      </trkpt>
      <trkpt lat="45.60182" lon="4.46085">
        <ele>563</ele>
        <time>2017-03-16T20:27:13Z</time>
      </trkpt>
      <trkpt lat="45.60227" lon="4.46113">
        <ele>570</ele>
        <time>2017-03-16T20:29:13Z</time>
      </trkpt>
      <trkpt lat="45.60277" lon="4.46103">
        <ele>573</ele>
        <time>2017-03-16T20:31:13Z</time>
      </trkpt>
      <trkpt lat="45.60369" lon="4.46055">
        <ele>575</ele>
        <time>2017-03-16T20:33:13Z</time>
      </trkpt>
      <trkpt lat="45.6043" lon="4.46053">
        <ele>576</ele>
        <time>2017-03-16T20:35:13Z</time>
      </trkpt>
      <trkpt lat="45.60473" lon="4.46048">
        <ele>572</ele>
        <time>2017-03-16T20:37:13Z</time>
      </trkpt>
      <trkpt lat="45.60531" lon="4.46044">
        <ele>568</ele>
        <time>2017-03-16T20:39:13Z</time>
      </trkpt>
      <trkpt lat="45.60567" lon="4.46059">
        <ele>569</ele>
        <time>2017-03-16T20:41:13Z</time>
      </trkpt>
      <trkpt lat="45.6063" lon="4.46035">
        <ele>566</ele>
        <time>2017-03-16T20:43:13Z</time>
      </trkpt>
      <trkpt lat="45.60652" lon="4.45971">
        <ele>557</ele>
        <time>2017-03-16T20:45:13Z</time>
      </trkpt>
      <trkpt lat="45.60703" lon="4.45913">
        <ele>549</ele>
        <time>2017-03-16T20:47:13Z</time>
      </trkpt>
      <trkpt lat="45.60759" lon="4.45879">
        <ele>546</ele>
        <time>2017-03-16T20:49:13Z</time>
      </trkpt>
      <trkpt lat="45.60811" lon="4.45887">
        <ele>542</ele>
        <time>2017-03-16T20:51:13Z</time>
      </trkpt>
      <trkpt lat="45.60886" lon="4.45906">
        <ele>536</ele>
        <time>2017-03-16T20:53:13Z</time>
      </trkpt>
      <trkpt lat="45.60941" lon="4.45896">
        <ele>531</ele>
        <time>2017-03-16T20:55:13Z</time>
      </trkpt>
      <trkpt lat="45.60949" lon="4.45856">
        <ele>527</ele>
        <time>2017-03-16T20:57:13Z</time>
      </trkpt>
      <trkpt lat="45.60975" lon="4.45786">
        <ele>525</ele>
        <time>2017-03-16T20:59:13Z</time>
      </trkpt>
      <trkpt lat="45.60995" lon="4.45738">
        <ele>526</ele>
        <time>2017-03-16T21:01:13Z</time>
      </trkpt>
      <trkpt lat="45.60991" lon="4.4571">
        <ele>528</ele>
        <time>2017-03-16T21:03:13Z</time>
      </trkpt>
      <trkpt lat="45.60961" lon="4.4567">
        <ele>532</ele>
        <time>2017-03-16T21:05:13Z</time>
      </trkpt>
      <trkpt lat="45.60955" lon="4.45662">
        <ele>533</ele>
        <time>2017-03-16T21:07:13Z</time>
      </trkpt>
      <trkpt lat="45.61059" lon="4.45567">
        <ele>534</ele>
        <time>2017-03-16T21:09:13Z</time>
      </trkpt>
      <trkpt lat="45.61158" lon="4.45466">
        <ele>533</ele>
        <time>2017-03-16T21:11:13Z</time>
      </trkpt>
      <trkpt lat="45.61204" lon="4.4543">
        <ele>534</ele>
        <time>2017-03-16T21:13:13Z</time>
      </trkpt>
      <trkpt lat="45.61262" lon="4.45421">
        <ele>534</ele>
        <time>2017-03-16T21:15:13Z</time>
      </trkpt>
      <trkpt lat="45.61297" lon="4.45459">
        <ele>528</ele>
        <time>2017-03-16T21:17:13Z</time>
      </trkpt>
      <trkpt lat="45.61331" lon="4.45478">
        <ele>525</ele>
        <time>2017-03-16T21:19:13Z</time>
      </trkpt>
      <trkpt lat="45.61413" lon="4.45465">
        <ele>520</ele>
        <time>2017-03-16T21:21:13Z</time>
      </trkpt>
      <trkpt lat="45.61451" lon="4.45471">
        <ele>518</ele>
        <time>2017-03-16T21:23:13Z</time>
      </trkpt>
      <trkpt lat="45.61473" lon="4.45499">
        <ele>517</ele>
        <time>2017-03-16T21:25:13Z</time>
      </trkpt>
      <trkpt lat="45.61492" lon="4.4554">
        <ele>524</ele>
        <time>2017-03-16T21:27:13Z</time>
      </trkpt>
      <trkpt lat="45.61527" lon="4.45548">
        <ele>532</ele>
        <time>2017-03-16T21:29:13Z</time>
      </trkpt>
      <trkpt lat="45.61595" lon="4.455">
        <ele>538</ele>
        <time>2017-03-16T21:31:13Z</time>
      </trkpt>
      <trkpt lat="45.61644" lon="4.45472">
        <ele>546</ele>
        <time>2017-03-16T21:33:13Z</time>
      </trkpt>
      <trkpt lat="45.61675" lon="4.454">
        <ele>540</ele>
        <time>2017-03-16T21:35:13Z</time>
      </trkpt>
      <trkpt lat="45.61678" lon="4.45375">
        <ele>536</ele>
        <time>2017-03-16T21:37:13Z</time>
      </trkpt>
      <trkpt lat="45.61673" lon="4.45334">
        <ele>528</ele>
        <time>2017-03-16T21:39:13Z</time>
      </trkpt>
      <trkpt lat="45.61683" lon="4.45309">
        <ele>527</ele>
        <time>2017-03-16T21:41:13Z</time>
      </trkpt>
      <trkpt lat="45.61728" lon="4.45287">
        <ele>533</ele>
        <time>2017-03-16T21:43:13Z</time>
      </trkpt>
      <trkpt lat="45.61752" lon="4.45273">
        <ele>536</ele>
        <time>2017-03-16T21:45:13Z</time>
      </trkpt>
      <trkpt lat="45.61731" lon="4.4523">
        <ele>530</ele>
        <time>2017-03-16T21:47:13Z</time>
      </trkpt>
      <trkpt lat="45.61674" lon="4.45196">
        <ele>518</ele>
        <time>2017-03-16T21:49:13Z</time>
      </trkpt>
      <trkpt lat="45.61669" lon="4.45158">
        <ele>516</ele>
        <time>2017-03-16T21:51:13Z</time>
      </trkpt>
      <trkpt lat="45.6168" lon="4.4512">
        <ele>518</ele>
        <time>2017-03-16T21:53:13Z</time>
      </trkpt>
      <trkpt lat="45.61692" lon="4.45089">
        <ele>520</ele>
        <time>2017-03-16T21:55:13Z</time>
      </trkpt>
      <trkpt lat="45.61711" lon="4.4514">
        <ele>526</ele>
        <time>2017-03-16T21:57:13Z</time>
      </trkpt>
      <trkpt lat="45.61732" lon="4.45146">
        <ele>531</ele>
        <time>2017-03-16T21:59:13Z</time>
      </trkpt>
      <trkpt lat="45.61749" lon="4.45104">
        <ele>536</ele>
        <time>2017-03-16T22:01:13Z</time>
      </trkpt>
      <trkpt lat="45.61775" lon="4.45028">
        <ele>539</ele>
        <time>2017-03-16T22:03:13Z</time>
      </trkpt>
      <trkpt lat="45.61834" lon="4.44965">
        <ele>548</ele>
        <time>2017-03-16T22:05:13Z</time>
      </trkpt>
      <trkpt lat="45.61855" lon="4.44957">
        <ele>545</ele>
        <time>2017-03-16T22:07:13Z</time>
      </trkpt>
      <trkpt lat="45.61848" lon="4.44994">
        <ele>550</ele>
        <time>2017-03-16T22:09:13Z</time>
      </trkpt>
      <trkpt lat="45.61852" lon="4.45058">
        <ele>550</ele>
        <time>2017-03-16T22:11:13Z</time>
      </trkpt>
      <trkpt lat="45.6186" lon="4.45116">
        <ele>551</ele>
        <time>2017-03-16T22:13:13Z</time>
      </trkpt>
      <trkpt lat="45.61861" lon="4.45197">
        <ele>554</ele>
        <time>2017-03-16T22:15:13Z</time>
      </trkpt>
      <trkpt lat="45.61891" lon="4.45224">
        <ele>558</ele>
        <time>2017-03-16T22:17:13Z</time>
      </trkpt>
      <trkpt lat="45.61957" lon="4.4529">
        <ele>569</ele>
        <time>2017-03-16T22:19:13Z</time>
      </trkpt>
      <trkpt lat="45.61998" lon="4.45303">
        <ele>573</ele>
        <time>2017-03-16T22:21:13Z</time>
      </trkpt>
      <trkpt lat="45.62036" lon="4.45313">
        <ele>576</ele>
        <time>2017-03-16T22:23:13Z</time>
      </trkpt>
      <trkpt lat="45.62074" lon="4.45311">
        <ele>577</ele>
        <time>2017-03-16T22:25:13Z</time>
      </trkpt>
      <trkpt lat="45.62132" lon="4.4533">
        <ele>577</ele>
        <time>2017-03-16T22:27:13Z</time>
      </trkpt>
      <trkpt lat="45.62158" lon="4.45338">
        <ele>575</ele>
        <time>2017-03-16T22:29:13Z</time>
      </trkpt>
      <trkpt lat="45.62233" lon="4.45352">
        <ele>563</ele>
        <time>2017-03-16T22:31:13Z</time>
      </trkpt>
      <trkpt lat="45.62293" lon="4.45356">
        <ele>556</ele>
        <time>2017-03-16T22:33:13Z</time>
      </trkpt>
      <trkpt lat="45.62356" lon="4.45364">
        <ele>551</ele>
        <time>2017-03-16T22:35:13Z</time>
      </trkpt>
      <trkpt lat="45.6242" lon="4.45385">
        <ele>548</ele>
        <time>2017-03-16T22:37:13Z</time>
      </trkpt>
      <trkpt lat="45.62475" lon="4.45416">
        <ele>536</ele>
        <time>2017-03-16T22:39:13Z</time>
      </trkpt>
      <trkpt lat="45.62513" lon="4.45483">
        <ele>533</ele>
        <time>2017-03-16T22:41:13Z</time>
      </trkpt>
      <trkpt lat="45.62547" lon="4.45534">
        <ele>526</ele>
        <time>2017-03-16T22:43:13Z</time>
      </trkpt>
      <trkpt lat="45.62559" lon="4.45572">
        <ele>524</ele>
        <time>2017-03-16T22:45:13Z</time>
      </trkpt>
      <trkpt lat="45.62559" lon="4.45638">
        <ele>521</ele>
        <time>2017-03-16T22:47:13Z</time>
      </trkpt>
      <trkpt lat="45.62549" lon="4.45702">
        <ele>519</ele>
        <time>2017-03-16T22:49:13Z</time>
      </trkpt>
      <trkpt lat="45.62543" lon="4.45757">
        <ele>516</ele>
        <time>2017-03-16T22:51:13Z</time>
      </trkpt>
      <trkpt lat="45.62543" lon="4.45835">
        <ele>510</ele>
        <time>2017-03-16T22:53:13Z</time>
      </trkpt>
      <trkpt lat="45.62582" lon="4.45828">
        <ele>505</ele>
        <time>2017-03-16T22:55:13Z</time>
      </trkpt>
      <trkpt lat="45.62585" lon="4.45904">
        <ele>505</ele>
        <time>2017-03-16T22:57:13Z</time>
      </trkpt>
      <trkpt lat="45.6261" lon="4.45977">
        <ele>506</ele>
        <time>2017-03-16T22:59:13Z</time>
      </trkpt>
      <trkpt lat="45.62625" lon="4.46032">
        <ele>508</ele>
        <time>2017-03-16T23:01:13Z</time>
      </trkpt>
      <trkpt lat="45.62637" lon="4.46088">
        <ele>509</ele>
        <time>2017-03-16T23:03:13Z</time>
      </trkpt>
      <trkpt lat="45.62682" lon="4.46175">
        <ele>512</ele>
        <time>2017-03-16T23:05:13Z</time>
      </trkpt>
      <trkpt lat="45.62726" lon="4.46244">
        <ele>519</ele>
        <time>2017-03-16T23:07:13Z</time>
      </trkpt>
      <trkpt lat="45.6274" lon="4.46275">
        <ele>522</ele>
        <time>2017-03-16T23:09:13Z</time>
      </trkpt>
      <trkpt lat="45.62739" lon="4.46312">
        <ele>522</ele>
        <time>2017-03-16T23:11:13Z</time>
      </trkpt>
      <trkpt lat="45.62722" lon="4.46353">
        <ele>520</ele>
        <time>2017-03-16T23:13:13Z</time>
      </trkpt>
      <trkpt lat="45.62717" lon="4.46379">
        <ele>520</ele>
        <time>2017-03-16T23:15:13Z</time>
      </trkpt>
      <trkpt lat="45.62707" lon="4.46397">
        <ele>519</ele>
        <time>2017-03-16T23:17:13Z</time>
      </trkpt>
      <trkpt lat="45.62705" lon="4.46423">
        <ele>519</ele>
        <time>2017-03-16T23:19:13Z</time>
      </trkpt>
      <trkpt lat="45.62715" lon="4.46438">
        <ele>520</ele>
        <time>2017-03-16T23:21:13Z</time>
      </trkpt>
      <trkpt lat="45.62757" lon="4.46434">
        <ele>527</ele>
        <time>2017-03-16T23:23:13Z</time>
      </trkpt>
      <trkpt lat="45.62798" lon="4.4642">
        <ele>535</ele>
        <time>2017-03-16T23:25:13Z</time>
      </trkpt>
      <trkpt lat="45.62825" lon="4.46409">
        <ele>541</ele>
        <time>2017-03-16T23:27:13Z</time>
      </trkpt>
      <trkpt lat="45.62861" lon="4.46412">
        <ele>547</ele>
        <time>2017-03-16T23:29:13Z</time>
      </trkpt>
      <trkpt lat="45.62888" lon="4.46394">
        <ele>552</ele>
        <time>2017-03-16T23:31:13Z</time>
      </trkpt>
      <trkpt lat="45.62927" lon="4.46386">
        <ele>558</ele>
        <time>2017-03-16T23:33:13Z</time>
      </trkpt>
      <trkpt lat="45.6295" lon="4.46355">
        <ele>560</ele>
        <time>2017-03-16T23:35:13Z</time>
      </trkpt>
      <trkpt lat="45.62995" lon="4.4634">
        <ele>565</ele>
        <time>2017-03-16T23:37:13Z</time>
      </trkpt>
      <trkpt lat="45.6305" lon="4.46314">
        <ele>575</ele>
        <time>2017-03-16T23:39:13Z</time>
      </trkpt>
      <trkpt lat="45.63087" lon="4.46267">
        <ele>581</ele>
        <time>2017-03-16T23:41:13Z</time>
      </trkpt>
      <trkpt lat="45.63129" lon="4.46201">
        <ele>589</ele>
        <time>2017-03-16T23:43:13Z</time>
      </trkpt>
      <trkpt lat="45.63162" lon="4.46136">
        <ele>590</ele>
        <time>2017-03-16T23:45:13Z</time>
      </trkpt>
      <trkpt lat="45.63204" lon="4.46084">
        <ele>594</ele>
        <time>2017-03-16T23:47:13Z</time>
      </trkpt>
      <trkpt lat="45.63238" lon="4.46056">
        <ele>597</ele>
        <time>2017-03-16T23:49:13Z</time>
      </trkpt>
      <trkpt lat="45.63264" lon="4.46015">
        <ele>597</ele>
        <time>2017-03-16T23:51:13Z</time>
      </trkpt>
      <trkpt lat="45.63281" lon="4.45935">
        <ele>595</ele>
        <time>2017-03-16T23:53:13Z</time>
      </trkpt>
      <trkpt lat="45.6331" lon="4.45822">
        <ele>594</ele>
        <time>2017-03-16T23:55:13Z</time>
      </trkpt>
      <trkpt lat="45.63321" lon="4.4572">
        <ele>590</ele>
        <time>2017-03-16T23:57:13Z</time>
      </trkpt>
      <trkpt lat="45.63322" lon="4.4566">
        <ele>587</ele>
        <time>2017-03-16T23:59:13Z</time>
      </trkpt>
      <trkpt lat="45.6334" lon="4.45657">
        <ele>586</ele>
        <time>2017-03-17T00:01:13Z</time>
      </trkpt>
      <trkpt lat="45.63342" lon="4.45586">
        <ele>583</ele>
        <time>2017-03-17T00:03:13Z</time>
      </trkpt>
      <trkpt lat="45.63355" lon="4.4562">
        <ele>584</ele>
        <time>2017-03-17T00:05:13Z</time>
      </trkpt>
      <trkpt lat="45.63383" lon="4.45609">
        <ele>580</ele>
        <time>2017-03-17T00:07:13Z</time>
      </trkpt>
      <trkpt lat="45.63435" lon="4.45581">
        <ele>574</ele>
        <time>2017-03-17T00:09:13Z</time>
      </trkpt>
      <trkpt lat="45.6344" lon="4.45561">
        <ele>573</ele>
        <time>2017-03-17T00:11:13Z</time>
      </trkpt>
      <trkpt lat="45.63416" lon="4.4556">
        <ele>573</ele>
        <time>2017-03-17T00:13:13Z</time>
      </trkpt>
      <trkpt lat="45.63392" lon="4.45554">
        <ele>576</ele>
        <time>2017-03-17T00:15:13Z</time>
      </trkpt>
      <trkpt lat="45.63386" lon="4.45456">
        <ele>573</ele>
        <time>2017-03-17T00:17:13Z</time>
      </trkpt>
      <trkpt lat="45.63377" lon="4.45382">
        <ele>571</ele>
        <time>2017-03-17T00:19:13Z</time>
      </trkpt>
      <trkpt lat="45.6337" lon="4.45363">
        <ele>571</ele>
        <time>2017-03-17T00:21:13Z</time>
      </trkpt>
      <trkpt lat="45.63377" lon="4.4535">
        <ele>570</ele>
        <time>2017-03-17T00:23:13Z</time>
      </trkpt>
      <trkpt lat="45.63387" lon="4.45354">
        <ele>571</ele>
        <time>2017-03-17T00:25:13Z</time>
      </trkpt>
      <trkpt lat="45.634" lon="4.45353">
        <ele>572</ele>
        <time>2017-03-17T00:27:13Z</time>
      </trkpt>
      <trkpt lat="45.63403" lon="4.45325">
        <ele>573</ele>
        <time>2017-03-17T00:29:13Z</time>
      </trkpt>
      <trkpt lat="45.63399" lon="4.45291">
        <ele>576</ele>
        <time>2017-03-17T00:31:13Z</time>
      </trkpt>
      <trkpt lat="45.63398" lon="4.45213">
        <ele>582</ele>
        <time>2017-03-17T00:33:13Z</time>
      </trkpt>
      <trkpt lat="45.63402" lon="4.45134">
        <ele>588</ele>
        <time>2017-03-17T00:35:13Z</time>
      </trkpt>
      <trkpt lat="45.63406" lon="4.45074">
        <ele>593</ele>
        <time>2017-03-17T00:37:13Z</time>
      </trkpt>
      <trkpt lat="45.63415" lon="4.4503">
        <ele>598</ele>
        <time>2017-03-17T00:39:13Z</time>
      </trkpt>
      <trkpt lat="45.63452" lon="4.44987">
        <ele>602</ele>
        <time>2017-03-17T00:41:13Z</time>
      </trkpt>
      <trkpt lat="45.635" lon="4.44933">
        <ele>608</ele>
        <time>2017-03-17T00:43:13Z</time>
      </trkpt>
      <trkpt lat="45.63528" lon="4.44902">
        <ele>611</ele>
        <time>2017-03-17T00:45:13Z</time>
      </trkpt>
      <trkpt lat="45.63538" lon="4.44895">
        <ele>612</ele>
        <time>2017-03-17T00:47:13Z</time>
      </trkpt>
      <trkpt lat="45.6356" lon="4.44854">
        <ele>615</ele>
        <time>2017-03-17T00:49:13Z</time>
      </trkpt>
      <trkpt lat="45.63555" lon="4.44804">
        <ele>615</ele>
        <time>2017-03-17T00:51:13Z</time>
      </trkpt>
      <trkpt lat="45.63548" lon="4.44776">
        <ele>615</ele>
        <time>2017-03-17T00:53:13Z</time>
      </trkpt>
      <trkpt lat="45.63565" lon="4.44762">
        <ele>617</ele>
        <time>2017-03-17T00:55:13Z</time>
      </trkpt>
      <trkpt lat="45.63552" lon="4.44706">
        <ele>617</ele>
        <time>2017-03-17T00:57:13Z</time>
      </trkpt>
      <trkpt lat="45.636" lon="4.44681">
        <ele>621</ele>
        <time>2017-03-17T00:59:13Z</time>
      </trkpt>
      <trkpt lat="45.63612" lon="4.44699">
        <ele>621</ele>
        <time>2017-03-17T01:01:13Z</time>
      </trkpt>
      <trkpt lat="45.63625" lon="4.44716">
        <ele>621</ele>
        <time>2017-03-17T01:03:13Z</time>
      </trkpt>
      <trkpt lat="45.63669" lon="4.44723">
        <ele>624</ele>
        <time>2017-03-17T01:05:13Z</time>
      </trkpt>
      <trkpt lat="45.63707" lon="4.44692">
        <ele>624</ele>
        <time>2017-03-17T01:07:13Z</time>
      </trkpt>
      <trkpt lat="45.63722" lon="4.44673">
        <ele>623</ele>
        <time>2017-03-17T01:09:13Z</time>
      </trkpt>
      <trkpt lat="45.63734" lon="4.44642">
        <ele>621</ele>
        <time>2017-03-17T01:11:13Z</time>
      </trkpt>
      <trkpt lat="45.63791" lon="4.44573">
        <ele>614</ele>
        <time>2017-03-17T01:13:13Z</time>
      </trkpt>
      <trkpt lat="45.638" lon="4.44554">
        <ele>612</ele>
        <time>2017-03-17T01:15:13Z</time>
      </trkpt>
      <trkpt lat="45.63805" lon="4.4454">
        <ele>610</ele>
        <time>2017-03-17T01:17:13Z</time>
      </trkpt>
      <trkpt lat="45.63826" lon="4.44525">
        <ele>608</ele>
        <time>2017-03-17T01:19:13Z</time>
      </trkpt>
      <trkpt lat="45.63913" lon="4.44482">
        <ele>608</ele>
        <time>2017-03-17T01:21:13Z</time>
      </trkpt>
      <trkpt lat="45.63896" lon="4.44393">
        <ele>597</ele>
        <time>2017-03-17T01:23:13Z</time>
      </trkpt>
      <trkpt lat="45.63895" lon="4.44367">
        <ele>594</ele>
        <time>2017-03-17T01:25:13Z</time>
      </trkpt>
      <trkpt lat="45.63939" lon="4.44284">
        <ele>588</ele>
        <time>2017-03-17T01:27:13Z</time>
      </trkpt>
      <trkpt lat="45.63933" lon="4.44191">
        <ele>586</ele>
        <time>2017-03-17T01:29:13Z</time>
      </trkpt>
      <trkpt lat="45.63935" lon="4.44174">
        <ele>586</ele>
        <time>2017-03-17T01:31:13Z</time>
      </trkpt>
      <trkpt lat="45.63977" lon="4.4406">
        <ele>590</ele>
        <time>2017-03-17T01:33:13Z</time>
      </trkpt>
      <trkpt lat="45.63992" lon="4.43998">
        <ele>595</ele>
        <time>2017-03-17T01:35:13Z</time>
      </trkpt>
      <trkpt lat="45.63993" lon="4.43941">
        <ele>599</ele>
        <time>2017-03-17T01:37:13Z</time>
      </trkpt>
      <trkpt lat="45.63988" lon="4.43882">
        <ele>601</ele>
        <time>2017-03-17T01:39:13Z</time>
      </trkpt>
      <trkpt lat="45.64015" lon="4.43734">
        <ele>606</ele>
        <time>2017-03-17T01:41:13Z</time>
      </trkpt>
      <trkpt lat="45.64082" lon="4.43593">
        <ele>604</ele>
        <time>2017-03-17T01:43:13Z</time>
      </trkpt>
      <trkpt lat="45.64099" lon="4.43552">
        <ele>602</ele>
        <time>2017-03-17T01:45:13Z</time>
      </trkpt>
      <trkpt lat="45.64132" lon="4.43507">
        <ele>600</ele>
        <time>2017-03-17T01:47:13Z</time>
      </trkpt>
      <trkpt lat="45.64159" lon="4.43491">
        <ele>599</ele>
        <time>2017-03-17T01:49:13Z</time>
      </trkpt>
      <trkpt lat="45.6416" lon="4.43448">
        <ele>597</ele>
        <time>2017-03-17T01:51:13Z</time>
      </trkpt>
      <trkpt lat="45.64161" lon="4.43421">
        <ele>596</ele>
        <time>2017-03-17T01:53:13Z</time>
      </trkpt>
      <trkpt lat="45.64146" lon="4.43388">
        <ele>595</ele>
        <time>2017-03-17T01:55:13Z</time>
      </trkpt>
      <trkpt lat="45.64129" lon="4.43364">
        <ele>594</ele>
        <time>2017-03-17T01:57:13Z</time>
      </trkpt>
      <trkpt lat="45.64127" lon="4.43331">
        <ele>594</ele>
        <time>2017-03-17T01:59:13Z</time>
      </trkpt>
      <trkpt lat="45.64154" lon="4.43255">
        <ele>599</ele>
        <time>2017-03-17T02:01:13Z</time>
      </trkpt>
      <trkpt lat="45.64181" lon="4.43168">
        <ele>609</ele>
        <time>2017-03-17T02:03:13Z</time>
      </trkpt>
      <trkpt lat="45.64159" lon="4.4313">
        <ele>609</ele>
        <time>2017-03-17T02:05:13Z</time>
      </trkpt>
      <trkpt lat="45.64161" lon="4.42961">
        <ele>615</ele>
        <time>2017-03-17T02:07:13Z</time>
      </trkpt>
      <trkpt lat="45.64148" lon="4.42915">
        <ele>616</ele>
        <time>2017-03-17T02:09:13Z</time>
      </trkpt>
      <trkpt lat="45.64131" lon="4.42878">
        <ele>618</ele>
        <time>2017-03-17T02:11:13Z</time>
      </trkpt>
      <trkpt lat="45.6425" lon="4.42819">
        <ele>643</ele>
        <time>2017-03-17T02:13:13Z</time>
      </trkpt>
      <trkpt lat="45.6426" lon="4.42807">
        <ele>645</ele>
        <time>2017-03-17T02:15:13Z</time>
      </trkpt>
      <trkpt lat="45.64248" lon="4.42764">
        <ele>647</ele>
        <time>2017-03-17T02:17:13Z</time>
      </trkpt>
      <trkpt lat="45.64234" lon="4.42709">
        <ele>645</ele>
        <time>2017-03-17T02:19:13Z</time>
      </trkpt>
      <trkpt lat="45.64242" lon="4.42653">
        <ele>646</ele>
        <time>2017-03-17T02:21:13Z</time>
      </trkpt>
      <trkpt lat="45.64247" lon="4.42637">
        <ele>645</ele>
        <time>2017-03-17T02:23:13Z</time>
      </trkpt>
      <trkpt lat="45.64271" lon="4.42601">
        <ele>647</ele>
        <time>2017-03-17T02:25:13Z</time>
      </trkpt>
      <trkpt lat="45.64283" lon="4.42553">
        <ele>647</ele>
        <time>2017-03-17T02:27:13Z</time>
      </trkpt>
      <trkpt lat="45.64261" lon="4.42495">
        <ele>643</ele>
        <time>2017-03-17T02:29:13Z</time>
      </trkpt>
      <trkpt lat="45.64154" lon="4.42364">
        <ele>640</ele>
        <time>2017-03-17T02:31:13Z</time>
      </trkpt>
      <trkpt lat="45.64051" lon="4.4227">
        <ele>644</ele>
        <time>2017-03-17T02:33:13Z</time>
      </trkpt>
      <trkpt lat="45.6401" lon="4.42145">
        <ele>638</ele>
        <time>2017-03-17T02:35:13Z</time>
      </trkpt>
      <trkpt lat="45.64001" lon="4.41922">
        <ele>628</ele>
        <time>2017-03-17T02:37:13Z</time>
      </trkpt>
      <trkpt lat="45.63932" lon="4.41881">
        <ele>625</ele>
        <time>2017-03-17T02:39:13Z</time>
      </trkpt>
      <trkpt lat="45.6383" lon="4.41862">
        <ele>619</ele>
        <time>2017-03-17T02:41:13Z</time>
      </trkpt>
      <trkpt lat="45.63785" lon="4.41811">
        <ele>612</ele>
        <time>2017-03-17T02:43:13Z</time>
      </trkpt>
      <trkpt lat="45.63821" lon="4.41761">
        <ele>615</ele>
        <time>2017-03-17T02:45:13Z</time>
      </trkpt>
      <trkpt lat="45.63877" lon="4.41678">
        <ele>612</ele>
        <time>2017-03-17T02:47:13Z</time>
      </trkpt>
      <trkpt lat="45.63922" lon="4.41624">
        <ele>615</ele>
        <time>2017-03-17T02:49:13Z</time>
      </trkpt>
      <trkpt lat="45.63944" lon="4.41431">
        <ele>614</ele>
        <time>2017-03-17T02:51:13Z</time>
      </trkpt>
      <trkpt lat="45.64027" lon="4.41354">
        <ele>612</ele>
        <time>2017-03-17T02:53:13Z</time>
      </trkpt>
      <trkpt lat="45.64048" lon="4.41276">
        <ele>606</ele>
        <time>2017-03-17T02:55:13Z</time>
      </trkpt>
      <trkpt lat="45.64043" lon="4.41201">
        <ele>596</ele>
        <time>2017-03-17T02:57:13Z</time>
      </trkpt>
      <trkpt lat="45.64067" lon="4.41128">
        <ele>587</ele>
        <time>2017-03-17T02:59:13Z</time>
      </trkpt>
      <trkpt lat="45.63985" lon="4.41087">
        <ele>569</ele>
        <time>2017-03-17T03:01:13Z</time>
      </trkpt>
      <trkpt lat="45.64034" lon="4.4107">
        <ele>573</ele>
        <time>2017-03-17T03:03:13Z</time>
      </trkpt>
      <trkpt lat="45.64046" lon="4.4101">
        <ele>569</ele>
        <time>2017-03-17T03:05:13Z</time>
      </trkpt>
      <trkpt lat="45.64013" lon="4.40995">
        <ele>565</ele>
        <time>2017-03-17T03:07:13Z</time>
      </trkpt>
      <trkpt lat="45.63979" lon="4.4095">
        <ele>565</ele>
        <time>2017-03-17T03:09:13Z</time>
      </trkpt>
      <trkpt lat="45.63937" lon="4.40939">
        <ele>562</ele>
        <time>2017-03-17T03:11:13Z</time>
      </trkpt>
      <trkpt lat="45.63902" lon="4.40821">
        <ele>571</ele>
        <time>2017-03-17T03:13:13Z</time>
      </trkpt>
      <trkpt lat="45.63901" lon="4.40718">
        <ele>578</ele>
        <time>2017-03-17T03:15:13Z</time>
      </trkpt>
      <trkpt lat="45.63868" lon="4.40671">
        <ele>578</ele>
        <time>2017-03-17T03:17:13Z</time>
      </trkpt>
      <trkpt lat="45.63875" lon="4.40641">
        <ele>580</ele>
        <time>2017-03-17T03:19:13Z</time>
      </trkpt>
      <trkpt lat="45.6383" lon="4.40598">
        <ele>577</ele>
        <time>2017-03-17T03:21:13Z</time>
      </trkpt>
      <trkpt lat="45.63808" lon="4.4051">
        <ele>574</ele>
        <time>2017-03-17T03:23:13Z</time>
      </trkpt>
      <trkpt lat="45.63779" lon="4.40461">
        <ele>571</ele>
        <time>2017-03-17T03:25:13Z</time>
      </trkpt>
      <trkpt lat="45.63799" lon="4.40364">
        <ele>574</ele>
        <time>2017-03-17T03:27:13Z</time>
      </trkpt>
      <trkpt lat="45.63868" lon="4.40214">
        <ele>579</ele>
        <time>2017-03-17T03:29:13Z</time>
      </trkpt>
      <trkpt lat="45.63874" lon="4.4012">
        <ele>584</ele>
        <time>2017-03-17T03:31:13Z</time>
      </trkpt>
      <trkpt lat="45.63875" lon="4.40036">
        <ele>590</ele>
        <time>2017-03-17T03:33:13Z</time>
      </trkpt>
      <trkpt lat="45.63902" lon="4.39967">
        <ele>595</ele>
        <time>2017-03-17T03:35:13Z</time>
      </trkpt>
      <trkpt lat="45.63924" lon="4.39885">
        <ele>602</ele>
        <time>2017-03-17T03:37:13Z</time>
      </trkpt>
      <trkpt lat="45.63892" lon="4.39827">
        <ele>606</ele>
        <time>2017-03-17T03:39:13Z</time>
      </trkpt>
      <trkpt lat="45.63869" lon="4.39744">
        <ele>610</ele>
        <time>2017-03-17T03:41:13Z</time>
      </trkpt>
      <trkpt lat="45.63857" lon="4.39676">
        <ele>613</ele>
        <time>2017-03-17T03:43:13Z</time>
      </trkpt>
      <trkpt lat="45.63845" lon="4.39639">
        <ele>615</ele>
        <time>2017-03-17T03:45:13Z</time>
      </trkpt>
      <trkpt lat="45.6383" lon="4.39559">
        <ele>620</ele>
        <time>2017-03-17T03:47:13Z</time>
      </trkpt>
      <trkpt lat="45.63987" lon="4.39467">
        <ele>623</ele>
        <time>2017-03-17T03:49:13Z</time>
      </trkpt>
      <trkpt lat="45.64013" lon="4.39432">
        <ele>622</ele>
        <time>2017-03-17T03:51:13Z</time>
      </trkpt>
      <trkpt lat="45.6406" lon="4.39397">
        <ele>620</ele>
        <time>2017-03-17T03:53:13Z</time>
      </trkpt>
      <trkpt lat="45.64123" lon="4.39351">
        <ele>618</ele>
        <time>2017-03-17T03:55:13Z</time>
      </trkpt>
      <trkpt lat="45.64163" lon="4.39294">
        <ele>617</ele>
        <time>2017-03-17T03:57:13Z</time>
      </trkpt>
      <trkpt lat="45.64213" lon="4.3924">
        <ele>615</ele>
        <time>2017-03-17T03:59:13Z</time>
      </trkpt>
      <trkpt lat="45.64268" lon="4.39192">
        <ele>614</ele>
        <time>2017-03-17T04:01:13Z</time>
      </trkpt>
      <trkpt lat="45.64315" lon="4.39129">
        <ele>613</ele>
        <time>2017-03-17T04:03:13Z</time>
      </trkpt>
      <trkpt lat="45.64376" lon="4.39083">
        <ele>614</ele>
        <time>2017-03-17T04:05:13Z</time>
      </trkpt>
      <trkpt lat="45.64416" lon="4.39032">
        <ele>613</ele>
        <time>2017-03-17T04:07:13Z</time>
      </trkpt>
      <trkpt lat="45.64461" lon="4.38996">
        <ele>611</ele>
        <time>2017-03-17T04:09:13Z</time>
      </trkpt>
      <trkpt lat="45.64484" lon="4.38986">
        <ele>610</ele>
        <time>2017-03-17T04:11:13Z</time>
      </trkpt>
    </trkseg>
  </trk>
</gpx>